Aérodrome :
LOGIN :

S'inscrire | Disclaimer

   EN    FR    IT 

 










Légende :    VFR   VFR Marginal   IFR   IFR Intensif   IFR Très Intensif
Visi : 
Plafond : 
>= 8 km
>= 3000ft
5 à 8 km
1000 à 3000 ft
1500m à 5 km
500 à 1000 ft
800 à 1500m
200 à 500 ft
< 800m
< 200 ft
Symboles :   Orages  Brouillard  Fortes neiges  Fortes précipitations  Vent > 20 kt
SIGMETs :   Divers  Orages  Givrage  Turbulence  Onde Orograph.  Cendres Volcan.







- Altitude de l'aérodrome : 12 ft
- Code IATA : BCN


LEBL - Barcelone

DERNIER METAR :
  • 190230Z 34011KT 9999 FEW020 04/01 Q1015 NOSIG

METARs EXPIRÉS :
  • 190200Z 33013KT 9999 FEW020 05/01 Q1015 NOSIG
  • 190130Z 33008KT 9999 FEW020 05/01 Q1015 NOSIG
  • 190100Z 32010KT 9999 FEW020 05/01 Q1016 NOSIG
  • 190030Z 32010KT 9999 FEW020 06/01 Q1016 NOSIG
  • 190000Z 33009KT 9999 FEW020 06/01 Q1016 NOSIG
  • 182330Z 33009KT 9999 FEW020 06/02 Q1016 NOSIG

TAF TAF LEBL
Valide du 19 à 00h jusqu'au 20 à 00h UTC


182300Z 1900/1924 33010KT 9999 FEW020 TX12/1912Z TN04/1906Z
PROB40 1900/1910 33012G22KT
BECMG 1911/1913 22006KT
Pas de NOTAMs connus pour ce terrain.



MET'MAP, la Météo Aéronautique d'un coup d'oeil ! - Copyright ORBIFLY Décembre 2007 - Disclaimer

ORBIFLY MET'MAP TEAM :

Programmation & Développement : Alexandra Zaïnal
Conception & Développement : Baudouin d'Aumeries
Co-Programmation & Développement : Marc-Olivier Méhu
Soutien technique & logistique : Manuel Goepfert

Contact : metmap@orbifly.com




SOURCES & CREDITS :

   NOAA